sensor_id;sensor_type;location;lat;lon;timestamp;temperature;humidity
55211;DHT22;41082;52.822;6.666;2022-11-03T00:01:57;11.20;99.90
55211;DHT22;41082;52.822;6.666;2022-11-03T00:04:22;11.20;99.90
55211;DHT22;41082;52.822;6.666;2022-11-03T00:06:50;11.20;99.90
55211;DHT22;41082;52.822;6.666;2022-11-03T00:09:17;11.20;99.90
55211;DHT22;41082;52.822;6.666;2022-11-03T00:11:44;11.20;99.90
55211;DHT22;41082;52.822;6.666;2022-11-03T00:14:11;11.20;99.90
55211;DHT22;41082;52.822;6.666;2022-11-03T00:16:38;11.20;99.90
55211;DHT22;41082;52.822;6.666;2022-11-03T00:19:04;11.20;99.90
55211;DHT22;41082;52.822;6.666;2022-11-03T00:21:30;11.20;99.90
55211;DHT22;41082;52.822;6.666;2022-11-03T00:23:56;11.20;99.90
55211;DHT22;41082;52.822;6.666;2022-11-03T00:26:23;11.20;99.90
55211;DHT22;41082;52.822;6.666;2022-11-03T00:28:51;11.20;99.90
55211;DHT22;41082;52.822;6.666;2022-11-03T00:31:20;11.20;99.90
55211;DHT22;41082;52.822;6.666;2022-11-03T00:33:46;11.10;99.90
55211;DHT22;41082;52.822;6.666;2022-11-03T00:36:15;11.20;99.90
55211;DHT22;41082;52.822;6.666;2022-11-03T00:38:44;11.10;99.90
55211;DHT22;41082;52.822;6.666;2022-11-03T00:41:10;11.10;99.90
55211;DHT22;41082;52.822;6.666;2022-11-03T00:43:36;11.10;99.90
55211;DHT22;41082;52.822;6.666;2022-11-03T00:46:03;11.10;99.90
55211;DHT22;41082;52.822;6.666;2022-11-03T00:48:30;11.10;99.90
55211;DHT22;41082;52.822;6.666;2022-11-03T00:51:04;11.10;99.90
55211;DHT22;41082;52.822;6.666;2022-11-03T00:53:31;11.10;99.90
55211;DHT22;41082;52.822;6.666;2022-11-03T00:55:57;11.10;99.90
55211;DHT22;41082;52.822;6.666;2022-11-03T00:58:23;11.10;99.90
55211;DHT22;41082;52.822;6.666;2022-11-03T01:00:48;11.00;99.90
55211;DHT22;41082;52.822;6.666;2022-11-03T01:03:14;11.00;99.90
55211;DHT22;41082;52.822;6.666;2022-11-03T01:05:40;11.00;99.90
55211;DHT22;41082;52.822;6.666;2022-11-03T01:08:30;11.00;99.90
55211;DHT22;41082;52.822;6.666;2022-11-03T01:10:56;11.00;99.90
55211;DHT22;41082;52.822;6.666;2022-11-03T01:13:46;11.00;99.90
55211;DHT22;41082;52.822;6.666;2022-11-03T01:16:12;11.00;99.90
55211;DHT22;41082;52.822;6.666;2022-11-03T01:18:37;11.00;99.90
55211;DHT22;41082;52.822;6.666;2022-11-03T01:21:03;11.00;99.90
55211;DHT22;41082;52.822;6.666;2022-11-03T01:23:28;10.90;99.90
55211;DHT22;41082;52.822;6.666;2022-11-03T01:25:54;10.90;99.90
55211;DHT22;41082;52.822;6.666;2022-11-03T01:28:19;11.00;99.90
55211;DHT22;41082;52.822;6.666;2022-11-03T01:30:45;10.90;99.90
55211;DHT22;41082;52.822;6.666;2022-11-03T01:33:10;10.90;99.90
55211;DHT22;41082;52.822;6.666;2022-11-03T01:35:36;10.90;99.90
55211;DHT22;41082;52.822;6.666;2022-11-03T01:38:02;10.90;99.90
55211;DHT22;41082;52.822;6.666;2022-11-03T01:40:27;10.90;99.90
55211;DHT22;41082;52.822;6.666;2022-11-03T01:42:53;10.90;99.90
55211;DHT22;41082;52.822;6.666;2022-11-03T01:45:19;10.90;99.90
55211;DHT22;41082;52.822;6.666;2022-11-03T01:47:45;11.00;99.90
55211;DHT22;41082;52.822;6.666;2022-11-03T01:50:16;10.90;99.90
55211;DHT22;41082;52.822;6.666;2022-11-03T01:52:55;10.90;99.90
55211;DHT22;41082;52.822;6.666;2022-11-03T01:55:28;10.90;99.90
55211;DHT22;41082;52.822;6.666;2022-11-03T01:58:06;10.90;99.90
55211;DHT22;41082;52.822;6.666;2022-11-03T02:00:35;10.90;99.90
55211;DHT22;41082;52.822;6.666;2022-11-03T02:03:01;10.90;99.90
55211;DHT22;41082;52.822;6.666;2022-11-03T02:05:28;10.90;99.90
55211;DHT22;41082;52.822;6.666;2022-11-03T02:08:14;10.90;99.90
55211;DHT22;41082;52.822;6.666;2022-11-03T02:10:41;10.80;99.90
55211;DHT22;41082;52.822;6.666;2022-11-03T02:13:14;10.90;99.90
55211;DHT22;41082;52.822;6.666;2022-11-03T02:15:41;10.80;99.90
55211;DHT22;41082;52.822;6.666;2022-11-03T02:18:08;10.90;99.90
55211;DHT22;41082;52.822;6.666;2022-11-03T02:20:34;10.90;99.90
55211;DHT22;41082;52.822;6.666;2022-11-03T02:25:59;10.90;99.90
55211;DHT22;41082;52.822;6.666;2022-11-03T02:28:29;10.90;99.90
55211;DHT22;41082;52.822;6.666;2022-11-03T02:31:08;10.90;99.90
55211;DHT22;41082;52.822;6.666;2022-11-03T02:36:31;10.90;99.90
55211;DHT22;41082;52.822;6.666;2022-11-03T02:39:04;10.90;99.90
55211;DHT22;41082;52.822;6.666;2022-11-03T02:41:34;10.90;99.90
55211;DHT22;41082;52.822;6.666;2022-11-03T02:44:02;10.90;99.90
55211;DHT22;41082;52.822;6.666;2022-11-03T02:46:29;10.90;99.90
55211;DHT22;41082;52.822;6.666;2022-11-03T02:48:56;11.00;99.90
55211;DHT22;41082;52.822;6.666;2022-11-03T02:51:23;11.00;99.90
55211;DHT22;41082;52.822;6.666;2022-11-03T02:54:12;11.00;99.90
55211;DHT22;41082;52.822;6.666;2022-11-03T02:56:49;11.00;99.90
55211;DHT22;41082;52.822;6.666;2022-11-03T02:59:18;11.00;99.90
55211;DHT22;41082;52.822;6.666;2022-11-03T03:01:50;11.00;99.90
55211;DHT22;41082;52.822;6.666;2022-11-03T03:04:37;11.00;99.90
55211;DHT22;41082;52.822;6.666;2022-11-03T03:07:06;11.00;99.90
55211;DHT22;41082;52.822;6.666;2022-11-03T03:09:42;11.00;99.90
55211;DHT22;41082;52.822;6.666;2022-11-03T03:12:09;11.10;99.90
55211;DHT22;41082;52.822;6.666;2022-11-03T03:14:37;11.10;99.90
55211;DHT22;41082;52.822;6.666;2022-11-03T03:20:04;11.10;99.90
55211;DHT22;41082;52.822;6.666;2022-11-03T03:27:30;11.10;99.90
55211;DHT22;41082;52.822;6.666;2022-11-03T03:30:03;11.10;99.90
55211;DHT22;41082;52.822;6.666;2022-11-03T03:32:34;11.10;99.90
55211;DHT22;41082;52.822;6.666;2022-11-03T03:35:01;11.10;99.90
55211;DHT22;41082;52.822;6.666;2022-11-03T03:37:30;11.10;99.90
55211;DHT22;41082;52.822;6.666;2022-11-03T03:39:59;11.10;99.90
55211;DHT22;41082;52.822;6.666;2022-11-03T03:42:29;11.00;99.90
55211;DHT22;41082;52.822;6.666;2022-11-03T03:44:57;11.10;99.90
55211;DHT22;41082;52.822;6.666;2022-11-03T03:47:28;11.00;99.90
55211;DHT22;41082;52.822;6.666;2022-11-03T03:49:55;11.00;99.90
55211;DHT22;41082;52.822;6.666;2022-11-03T03:52:21;11.00;99.90
55211;DHT22;41082;52.822;6.666;2022-11-03T03:54:47;11.00;99.90
55211;DHT22;41082;52.822;6.666;2022-11-03T03:57:17;11.00;99.90
55211;DHT22;41082;52.822;6.666;2022-11-03T03:59:45;11.00;99.90
55211;DHT22;41082;52.822;6.666;2022-11-03T04:02:11;11.00;99.90
55211;DHT22;41082;52.822;6.666;2022-11-03T04:04:37;11.00;99.90
55211;DHT22;41082;52.822;6.666;2022-11-03T04:07:03;11.00;99.90
55211;DHT22;41082;52.822;6.666;2022-11-03T04:09:47;11.00;99.90
55211;DHT22;41082;52.822;6.666;2022-11-03T04:12:13;11.00;99.90
55211;DHT22;41082;52.822;6.666;2022-11-03T04:14:57;11.00;99.90
55211;DHT22;41082;52.822;6.666;2022-11-03T04:17:46;11.00;99.90
55211;DHT22;41082;52.822;6.666;2022-11-03T04:20:31;11.00;99.90
55211;DHT22;41082;52.822;6.666;2022-11-03T04:23:16;11.00;99.90
55211;DHT22;41082;52.822;6.666;2022-11-03T04:25:49;11.00;99.90
55211;DHT22;41082;52.822;6.666;2022-11-03T04:28:16;11.00;99.90
55211;DHT22;41082;52.822;6.666;2022-11-03T04:30:42;11.00;99.90
55211;DHT22;41082;52.822;6.666;2022-11-03T04:33:18;11.00;99.90
55211;DHT22;41082;52.822;6.666;2022-11-03T04:35:45;11.00;99.90
55211;DHT22;41082;52.822;6.666;2022-11-03T04:40:45;11.00;99.90
55211;DHT22;41082;52.822;6.666;2022-11-03T04:43:11;11.00;99.90
55211;DHT22;41082;52.822;6.666;2022-11-03T04:45:38;10.90;99.90
55211;DHT22;41082;52.822;6.666;2022-11-03T04:48:22;11.00;99.90
55211;DHT22;41082;52.822;6.666;2022-11-03T04:50:51;11.00;99.90
55211;DHT22;41082;52.822;6.666;2022-11-03T04:53:18;10.90;99.90
55211;DHT22;41082;52.822;6.666;2022-11-03T04:55:46;11.00;99.90
55211;DHT22;41082;52.822;6.666;2022-11-03T04:58:19;11.00;99.90
55211;DHT22;41082;52.822;6.666;2022-11-03T05:00:49;11.00;99.90
55211;DHT22;41082;52.822;6.666;2022-11-03T05:03:21;11.00;99.90
55211;DHT22;41082;52.822;6.666;2022-11-03T05:05:47;11.00;99.90
55211;DHT22;41082;52.822;6.666;2022-11-03T05:08:16;11.00;99.90
55211;DHT22;41082;52.822;6.666;2022-11-03T05:10:42;11.00;99.90
55211;DHT22;41082;52.822;6.666;2022-11-03T05:13:18;11.10;99.90
55211;DHT22;41082;52.822;6.666;2022-11-03T05:15:47;11.10;99.90
55211;DHT22;41082;52.822;6.666;2022-11-03T05:18:19;11.00;99.90
55211;DHT22;41082;52.822;6.666;2022-11-03T05:20:57;11.00;99.90
55211;DHT22;41082;52.822;6.666;2022-11-03T05:23:25;11.00;99.90
55211;DHT22;41082;52.822;6.666;2022-11-03T05:25:52;11.10;99.90
55211;DHT22;41082;52.822;6.666;2022-11-03T05:28:28;11.10;99.90
55211;DHT22;41082;52.822;6.666;2022-11-03T05:30:55;11.10;99.90
55211;DHT22;41082;52.822;6.666;2022-11-03T05:33:29;11.10;99.90
55211;DHT22;41082;52.822;6.666;2022-11-03T05:35:57;11.10;99.90
55211;DHT22;41082;52.822;6.666;2022-11-03T05:38:29;11.10;99.90
55211;DHT22;41082;52.822;6.666;2022-11-03T05:40:55;11.20;99.90
55211;DHT22;41082;52.822;6.666;2022-11-03T05:43:21;11.10;99.90
55211;DHT22;41082;52.822;6.666;2022-11-03T05:45:49;11.20;99.90
55211;DHT22;41082;52.822;6.666;2022-11-03T05:50:51;11.20;99.90
55211;DHT22;41082;52.822;6.666;2022-11-03T05:55:42;11.10;99.90
55211;DHT22;41082;52.822;6.666;2022-11-03T06:00:53;11.10;99.90
55211;DHT22;41082;52.822;6.666;2022-11-03T06:03:24;11.10;99.90
55211;DHT22;41082;52.822;6.666;2022-11-03T06:05:52;11.10;99.90
55211;DHT22;41082;52.822;6.666;2022-11-03T06:08:20;11.20;99.90
55211;DHT22;41082;52.822;6.666;2022-11-03T06:10:55;11.10;99.90
55211;DHT22;41082;52.822;6.666;2022-11-03T06:13:36;11.10;99.90
55211;DHT22;41082;52.822;6.666;2022-11-03T06:16:30;11.10;99.90
55211;DHT22;41082;52.822;6.666;2022-11-03T06:18:59;11.10;99.90
55211;DHT22;41082;52.822;6.666;2022-11-03T06:21:26;11.10;99.90
55211;DHT22;41082;52.822;6.666;2022-11-03T06:23:52;11.10;99.90
55211;DHT22;41082;52.822;6.666;2022-11-03T06:26:24;11.10;99.90
55211;DHT22;41082;52.822;6.666;2022-11-03T06:28:52;11.10;99.90
55211;DHT22;41082;52.822;6.666;2022-11-03T06:31:21;11.10;99.90
55211;DHT22;41082;52.822;6.666;2022-11-03T06:33:48;11.10;99.90
55211;DHT22;41082;52.822;6.666;2022-11-03T06:36:21;11.10;99.90
55211;DHT22;41082;52.822;6.666;2022-11-03T06:38:54;11.10;99.90
55211;DHT22;41082;52.822;6.666;2022-11-03T06:41:24;11.10;99.90
55211;DHT22;41082;52.822;6.666;2022-11-03T06:43:49;11.10;99.90
55211;DHT22;41082;52.822;6.666;2022-11-03T06:46:23;11.10;99.90
55211;DHT22;41082;52.822;6.666;2022-11-03T06:48:51;11.10;99.90
55211;DHT22;41082;52.822;6.666;2022-11-03T06:51:22;11.10;99.90
55211;DHT22;41082;52.822;6.666;2022-11-03T06:53:49;11.10;99.90
55211;DHT22;41082;52.822;6.666;2022-11-03T06:56:19;11.10;99.90
55211;DHT22;41082;52.822;6.666;2022-11-03T06:58:46;11.10;99.90
55211;DHT22;41082;52.822;6.666;2022-11-03T07:01:23;11.20;99.90
55211;DHT22;41082;52.822;6.666;2022-11-03T07:03:51;11.20;99.90
55211;DHT22;41082;52.822;6.666;2022-11-03T07:06:22;11.20;99.90
55211;DHT22;41082;52.822;6.666;2022-11-03T07:08:50;11.20;99.90
55211;DHT22;41082;52.822;6.666;2022-11-03T07:11:21;11.20;99.90
55211;DHT22;41082;52.822;6.666;2022-11-03T07:13:50;11.20;99.90
55211;DHT22;41082;52.822;6.666;2022-11-03T07:18:54;11.30;99.90
55211;DHT22;41082;52.822;6.666;2022-11-03T07:24:12;11.40;99.90
55211;DHT22;41082;52.822;6.666;2022-11-03T07:26:40;11.50;99.90
55211;DHT22;41082;52.822;6.666;2022-11-03T07:29:22;11.50;99.90
55211;DHT22;41082;52.822;6.666;2022-11-03T07:31:51;11.50;99.90
55211;DHT22;41082;52.822;6.666;2022-11-03T07:34:21;11.60;99.90
55211;DHT22;41082;52.822;6.666;2022-11-03T07:36:47;11.60;99.90
55211;DHT22;41082;52.822;6.666;2022-11-03T07:39:17;11.70;99.90
55211;DHT22;41082;52.822;6.666;2022-11-03T07:41:44;11.70;99.90
55211;DHT22;41082;52.822;6.666;2022-11-03T07:44:16;11.80;99.90
55211;DHT22;41082;52.822;6.666;2022-11-03T07:46:45;11.80;99.90
55211;DHT22;41082;52.822;6.666;2022-11-03T07:49:27;11.80;99.90
55211;DHT22;41082;52.822;6.666;2022-11-03T07:51:55;11.90;99.90
55211;DHT22;41082;52.822;6.666;2022-11-03T07:54:24;11.90;99.90
55211;DHT22;41082;52.822;6.666;2022-11-03T07:56:59;12.00;99.90
55211;DHT22;41082;52.822;6.666;2022-11-03T07:59:41;12.00;99.90
55211;DHT22;41082;52.822;6.666;2022-11-03T08:04:50;12.10;99.90
55211;DHT22;41082;52.822;6.666;2022-11-03T08:07:16;12.10;99.90
55211;DHT22;41082;52.822;6.666;2022-11-03T08:09:41;12.20;99.90
55211;DHT22;41082;52.822;6.666;2022-11-03T08:12:07;12.20;99.90
55211;DHT22;41082;52.822;6.666;2022-11-03T08:14:33;12.30;99.90
55211;DHT22;41082;52.822;6.666;2022-11-03T08:16:58;12.30;99.90
55211;DHT22;41082;52.822;6.666;2022-11-03T08:19:24;12.30;99.90
55211;DHT22;41082;52.822;6.666;2022-11-03T08:21:49;12.40;99.90
55211;DHT22;41082;52.822;6.666;2022-11-03T08:24:15;12.40;99.90
55211;DHT22;41082;52.822;6.666;2022-11-03T08:26:40;12.40;99.90
55211;DHT22;41082;52.822;6.666;2022-11-03T08:29:06;12.50;99.90
55211;DHT22;41082;52.822;6.666;2022-11-03T08:31:32;12.50;99.90
55211;DHT22;41082;52.822;6.666;2022-11-03T08:33:57;12.50;99.90
55211;DHT22;41082;52.822;6.666;2022-11-03T08:36:23;12.60;99.90
55211;DHT22;41082;52.822;6.666;2022-11-03T08:38:49;12.60;99.90
55211;DHT22;41082;52.822;6.666;2022-11-03T08:41:15;12.60;99.90
55211;DHT22;41082;52.822;6.666;2022-11-03T08:43:40;12.70;99.90
55211;DHT22;41082;52.822;6.666;2022-11-03T08:46:06;12.70;99.90
55211;DHT22;41082;52.822;6.666;2022-11-03T08:48:31;12.80;99.90
55211;DHT22;41082;52.822;6.666;2022-11-03T08:50:57;12.80;99.90
55211;DHT22;41082;52.822;6.666;2022-11-03T08:53:24;12.90;99.90
55211;DHT22;41082;52.822;6.666;2022-11-03T08:55:54;12.90;99.90
55211;DHT22;41082;52.822;6.666;2022-11-03T08:58:20;13.00;99.90
55211;DHT22;41082;52.822;6.666;2022-11-03T09:00:47;13.00;99.90
55211;DHT22;41082;52.822;6.666;2022-11-03T09:03:13;13.10;99.90
55211;DHT22;41082;52.822;6.666;2022-11-03T09:05:39;13.20;99.90
55211;DHT22;41082;52.822;6.666;2022-11-03T09:08:05;13.20;99.90
55211;DHT22;41082;52.822;6.666;2022-11-03T09:10:31;13.20;99.90
55211;DHT22;41082;52.822;6.666;2022-11-03T09:12:56;13.30;99.90
55211;DHT22;41082;52.822;6.666;2022-11-03T09:15:22;13.30;99.90
55211;DHT22;41082;52.822;6.666;2022-11-03T09:17:48;13.40;99.90
55211;DHT22;41082;52.822;6.666;2022-11-03T09:20:13;13.40;99.90
55211;DHT22;41082;52.822;6.666;2022-11-03T09:22:39;13.40;99.90
55211;DHT22;41082;52.822;6.666;2022-11-03T09:25:05;13.50;99.90
55211;DHT22;41082;52.822;6.666;2022-11-03T09:27:31;13.50;99.90
55211;DHT22;41082;52.822;6.666;2022-11-03T09:29:57;13.60;99.90
55211;DHT22;41082;52.822;6.666;2022-11-03T09:32:23;13.70;99.90
55211;DHT22;41082;52.822;6.666;2022-11-03T09:34:49;13.70;99.90
55211;DHT22;41082;52.822;6.666;2022-11-03T09:37:14;13.80;99.90
55211;DHT22;41082;52.822;6.666;2022-11-03T09:39:41;13.90;99.90
55211;DHT22;41082;52.822;6.666;2022-11-03T09:42:07;13.90;99.90
55211;DHT22;41082;52.822;6.666;2022-11-03T09:44:35;14.00;99.90
55211;DHT22;41082;52.822;6.666;2022-11-03T09:47:02;14.20;99.90
55211;DHT22;41082;52.822;6.666;2022-11-03T09:49:30;14.20;99.90
55211;DHT22;41082;52.822;6.666;2022-11-03T09:51:57;14.30;99.90
55211;DHT22;41082;52.822;6.666;2022-11-03T09:54:22;14.40;99.90
55211;DHT22;41082;52.822;6.666;2022-11-03T09:56:48;14.50;99.90
55211;DHT22;41082;52.822;6.666;2022-11-03T09:59:19;14.50;99.90
55211;DHT22;41082;52.822;6.666;2022-11-03T10:01:46;14.50;99.90
55211;DHT22;41082;52.822;6.666;2022-11-03T10:04:15;14.50;99.90
55211;DHT22;41082;52.822;6.666;2022-11-03T10:06:41;14.60;99.90
55211;DHT22;41082;52.822;6.666;2022-11-03T10:09:12;14.60;99.90
55211;DHT22;41082;52.822;6.666;2022-11-03T10:11:39;14.70;99.90
55211;DHT22;41082;52.822;6.666;2022-11-03T10:14:08;14.70;99.90
55211;DHT22;41082;52.822;6.666;2022-11-03T10:16:36;14.70;99.90
55211;DHT22;41082;52.822;6.666;2022-11-03T10:19:02;14.80;99.90
55211;DHT22;41082;52.822;6.666;2022-11-03T10:21:31;14.90;99.90
55211;DHT22;41082;52.822;6.666;2022-11-03T10:24:00;15.00;99.90
55211;DHT22;41082;52.822;6.666;2022-11-03T10:26:26;15.00;99.90
55211;DHT22;41082;52.822;6.666;2022-11-03T10:29:04;15.10;99.90
55211;DHT22;41082;52.822;6.666;2022-11-03T10:31:40;15.10;99.90
55211;DHT22;41082;52.822;6.666;2022-11-03T10:37:09;15.00;99.90
55211;DHT22;41082;52.822;6.666;2022-11-03T10:39:36;15.10;99.90
55211;DHT22;41082;52.822;6.666;2022-11-03T10:42:02;15.10;99.90
55211;DHT22;41082;52.822;6.666;2022-11-03T10:44:28;15.20;99.90
55211;DHT22;41082;52.822;6.666;2022-11-03T10:47:03;15.20;99.90
55211;DHT22;41082;52.822;6.666;2022-11-03T10:49:30;15.20;99.90
55211;DHT22;41082;52.822;6.666;2022-11-03T10:54:46;15.20;99.90
55211;DHT22;41082;52.822;6.666;2022-11-03T10:57:12;15.20;99.90
55211;DHT22;41082;52.822;6.666;2022-11-03T10:59:38;15.30;99.90
55211;DHT22;41082;52.822;6.666;2022-11-03T11:02:24;15.40;99.90
55211;DHT22;41082;52.822;6.666;2022-11-03T11:05:00;15.50;99.90
55211;DHT22;41082;52.822;6.666;2022-11-03T11:07:34;15.50;99.90
55211;DHT22;41082;52.822;6.666;2022-11-03T11:10:06;15.60;99.90
55211;DHT22;41082;52.822;6.666;2022-11-03T11:12:33;15.60;99.90
55211;DHT22;41082;52.822;6.666;2022-11-03T11:15:03;15.60;99.90
55211;DHT22;41082;52.822;6.666;2022-11-03T11:17:48;15.60;99.90
55211;DHT22;41082;52.822;6.666;2022-11-03T11:22:47;15.60;99.90
55211;DHT22;41082;52.822;6.666;2022-11-03T11:25:14;15.60;99.90
55211;DHT22;41082;52.822;6.666;2022-11-03T11:35:15;15.60;99.90
55211;DHT22;41082;52.822;6.666;2022-11-03T11:37:41;15.60;99.90
55211;DHT22;41082;52.822;6.666;2022-11-03T11:46:54;15.60;99.90
55211;DHT22;41082;52.822;6.666;2022-11-03T11:51:22;15.60;99.90
55211;DHT22;41082;52.822;6.666;2022-11-03T11:53:49;15.60;99.90
55211;DHT22;41082;52.822;6.666;2022-11-03T11:56:16;15.60;99.90
55211;DHT22;41082;52.822;6.666;2022-11-03T11:58:48;15.60;99.90
55211;DHT22;41082;52.822;6.666;2022-11-03T12:01:29;15.60;99.90
55211;DHT22;41082;52.822;6.666;2022-11-03T12:04:03;15.60;99.90
55211;DHT22;41082;52.822;6.666;2022-11-03T12:06:34;15.60;99.90
55211;DHT22;41082;52.822;6.666;2022-11-03T12:09:16;15.60;99.90
55211;DHT22;41082;52.822;6.666;2022-11-03T12:11:50;15.60;99.90
55211;DHT22;41082;52.822;6.666;2022-11-03T12:16:58;15.60;99.90
55211;DHT22;41082;52.822;6.666;2022-11-03T12:22:11;15.70;99.90
55211;DHT22;41082;52.822;6.666;2022-11-03T12:24:45;15.70;99.90
55211;DHT22;41082;52.822;6.666;2022-11-03T12:29:45;15.70;99.90
55211;DHT22;41082;52.822;6.666;2022-11-03T12:32:11;15.70;99.90
55211;DHT22;41082;52.822;6.666;2022-11-03T12:34:36;15.70;99.90
55211;DHT22;41082;52.822;6.666;2022-11-03T12:37:02;15.60;99.90
55211;DHT22;41082;52.822;6.666;2022-11-03T12:39:27;15.60;99.90
55211;DHT22;41082;52.822;6.666;2022-11-03T12:41:53;15.60;99.90
55211;DHT22;41082;52.822;6.666;2022-11-03T12:44:18;15.60;99.90
55211;DHT22;41082;52.822;6.666;2022-11-03T12:46:44;15.70;99.90
55211;DHT22;41082;52.822;6.666;2022-11-03T12:49:10;15.70;99.90
55211;DHT22;41082;52.822;6.666;2022-11-03T12:51:35;15.70;99.90
55211;DHT22;41082;52.822;6.666;2022-11-03T12:54:01;15.80;99.90
55211;DHT22;41082;52.822;6.666;2022-11-03T12:56:26;15.80;99.90
55211;DHT22;41082;52.822;6.666;2022-11-03T12:58:52;15.90;99.90
55211;DHT22;41082;52.822;6.666;2022-11-03T13:01:17;15.90;99.90
55211;DHT22;41082;52.822;6.666;2022-11-03T13:03:43;15.90;99.90
55211;DHT22;41082;52.822;6.666;2022-11-03T13:06:09;16.00;99.90
55211;DHT22;41082;52.822;6.666;2022-11-03T13:08:36;16.00;99.90
55211;DHT22;41082;52.822;6.666;2022-11-03T13:11:02;15.90;99.90
55211;DHT22;41082;52.822;6.666;2022-11-03T13:13:28;16.00;99.90
55211;DHT22;41082;52.822;6.666;2022-11-03T13:15:53;16.00;99.90
55211;DHT22;41082;52.822;6.666;2022-11-03T13:18:20;16.00;99.90
55211;DHT22;41082;52.822;6.666;2022-11-03T13:20:46;16.10;99.90
55211;DHT22;41082;52.822;6.666;2022-11-03T13:23:12;16.10;99.90
55211;DHT22;41082;52.822;6.666;2022-11-03T13:25:38;16.00;99.90
55211;DHT22;41082;52.822;6.666;2022-11-03T13:28:04;16.00;99.90
55211;DHT22;41082;52.822;6.666;2022-11-03T13:30:30;16.10;99.90
55211;DHT22;41082;52.822;6.666;2022-11-03T13:32:56;16.00;99.90
55211;DHT22;41082;52.822;6.666;2022-11-03T13:35:22;16.10;99.90
55211;DHT22;41082;52.822;6.666;2022-11-03T13:37:47;16.00;99.90
55211;DHT22;41082;52.822;6.666;2022-11-03T13:40:13;16.00;99.90
55211;DHT22;41082;52.822;6.666;2022-11-03T13:42:39;16.00;99.90
55211;DHT22;41082;52.822;6.666;2022-11-03T13:45:06;16.00;99.90
55211;DHT22;41082;52.822;6.666;2022-11-03T13:47:33;16.00;99.90
55211;DHT22;41082;52.822;6.666;2022-11-03T13:49:58;16.00;99.90
55211;DHT22;41082;52.822;6.666;2022-11-03T13:52:25;16.00;99.90
55211;DHT22;41082;52.822;6.666;2022-11-03T13:54:51;15.90;99.90
55211;DHT22;41082;52.822;6.666;2022-11-03T13:57:17;15.90;99.90
55211;DHT22;41082;52.822;6.666;2022-11-03T13:59:42;15.80;99.90
55211;DHT22;41082;52.822;6.666;2022-11-03T14:02:09;15.80;99.90
55211;DHT22;41082;52.822;6.666;2022-11-03T14:04:35;15.80;99.90
55211;DHT22;41082;52.822;6.666;2022-11-03T14:07:03;15.70;99.90
55211;DHT22;41082;52.822;6.666;2022-11-03T14:09:29;15.70;99.90
55211;DHT22;41082;52.822;6.666;2022-11-03T14:11:55;15.70;99.90
55211;DHT22;41082;52.822;6.666;2022-11-03T14:14:39;15.70;99.90
55211;DHT22;41082;52.822;6.666;2022-11-03T14:17:04;15.70;99.90
55211;DHT22;41082;52.822;6.666;2022-11-03T14:19:30;15.70;99.90
55211;DHT22;41082;52.822;6.666;2022-11-03T14:21:56;15.60;99.90
55211;DHT22;41082;52.822;6.666;2022-11-03T14:24:21;15.60;99.90
55211;DHT22;41082;52.822;6.666;2022-11-03T14:26:47;15.60;99.90
55211;DHT22;41082;52.822;6.666;2022-11-03T14:29:12;15.60;99.90
55211;DHT22;41082;52.822;6.666;2022-11-03T14:31:38;15.60;99.90
55211;DHT22;41082;52.822;6.666;2022-11-03T14:34:03;15.70;99.90
55211;DHT22;41082;52.822;6.666;2022-11-03T14:36:30;15.70;99.90
55211;DHT22;41082;52.822;6.666;2022-11-03T14:38:56;15.70;99.90
55211;DHT22;41082;52.822;6.666;2022-11-03T14:41:21;15.70;99.90
55211;DHT22;41082;52.822;6.666;2022-11-03T14:44:05;15.70;99.90
55211;DHT22;41082;52.822;6.666;2022-11-03T14:46:31;15.70;99.90
55211;DHT22;41082;52.822;6.666;2022-11-03T14:48:57;15.60;99.90
55211;DHT22;41082;52.822;6.666;2022-11-03T14:51:24;15.60;99.90
55211;DHT22;41082;52.822;6.666;2022-11-03T14:53:50;15.50;99.90
55211;DHT22;41082;52.822;6.666;2022-11-03T14:56:15;15.50;99.90
55211;DHT22;41082;52.822;6.666;2022-11-03T14:58:41;15.50;99.90
55211;DHT22;41082;52.822;6.666;2022-11-03T15:01:06;15.40;99.90
55211;DHT22;41082;52.822;6.666;2022-11-03T15:03:33;15.40;99.90
55211;DHT22;41082;52.822;6.666;2022-11-03T15:05:58;15.30;99.90
55211;DHT22;41082;52.822;6.666;2022-11-03T15:08:24;15.20;99.90
55211;DHT22;41082;52.822;6.666;2022-11-03T15:10:50;15.20;99.90
55211;DHT22;41082;52.822;6.666;2022-11-03T15:13:16;15.10;99.90
55211;DHT22;41082;52.822;6.666;2022-11-03T15:15:42;15.10;99.90
55211;DHT22;41082;52.822;6.666;2022-11-03T15:18:08;15.00;99.90
55211;DHT22;41082;52.822;6.666;2022-11-03T15:20:34;15.00;99.90
55211;DHT22;41082;52.822;6.666;2022-11-03T15:23:02;15.00;99.90
55211;DHT22;41082;52.822;6.666;2022-11-03T15:25:28;14.90;99.90
55211;DHT22;41082;52.822;6.666;2022-11-03T15:27:54;14.90;99.90
55211;DHT22;41082;52.822;6.666;2022-11-03T15:30:19;14.90;99.90
55211;DHT22;41082;52.822;6.666;2022-11-03T15:32:45;14.80;99.90
55211;DHT22;41082;52.822;6.666;2022-11-03T15:35:11;14.80;99.90
55211;DHT22;41082;52.822;6.666;2022-11-03T15:37:36;14.80;99.90
55211;DHT22;41082;52.822;6.666;2022-11-03T15:40:02;14.70;99.90
55211;DHT22;41082;52.822;6.666;2022-11-03T15:42:28;14.70;99.90
55211;DHT22;41082;52.822;6.666;2022-11-03T15:44:54;14.60;99.90
55211;DHT22;41082;52.822;6.666;2022-11-03T15:47:19;14.60;99.90
55211;DHT22;41082;52.822;6.666;2022-11-03T15:49:45;14.60;99.90
55211;DHT22;41082;52.822;6.666;2022-11-03T15:52:10;14.60;99.90
55211;DHT22;41082;52.822;6.666;2022-11-03T15:54:36;14.50;99.90
55211;DHT22;41082;52.822;6.666;2022-11-03T15:57:01;14.50;99.90
55211;DHT22;41082;52.822;6.666;2022-11-03T15:59:27;14.50;99.90
55211;DHT22;41082;52.822;6.666;2022-11-03T16:01:52;14.40;99.90
55211;DHT22;41082;52.822;6.666;2022-11-03T16:04:18;14.40;99.90
55211;DHT22;41082;52.822;6.666;2022-11-03T16:06:44;14.40;99.90
55211;DHT22;41082;52.822;6.666;2022-11-03T16:09:09;14.30;99.90
55211;DHT22;41082;52.822;6.666;2022-11-03T16:11:35;14.30;99.90
55211;DHT22;41082;52.822;6.666;2022-11-03T16:14:00;14.30;99.90
55211;DHT22;41082;52.822;6.666;2022-11-03T16:16:26;14.20;99.90
55211;DHT22;41082;52.822;6.666;2022-11-03T16:18:51;14.20;99.90
55211;DHT22;41082;52.822;6.666;2022-11-03T16:21:17;14.20;99.90
55211;DHT22;41082;52.822;6.666;2022-11-03T16:23:42;14.20;99.90
55211;DHT22;41082;52.822;6.666;2022-11-03T16:26:08;14.20;99.90
55211;DHT22;41082;52.822;6.666;2022-11-03T16:28:34;14.10;99.90
55211;DHT22;41082;52.822;6.666;2022-11-03T16:31:00;14.10;99.90
55211;DHT22;41082;52.822;6.666;2022-11-03T16:33:25;14.10;99.90
55211;DHT22;41082;52.822;6.666;2022-11-03T16:35:51;14.10;99.90
55211;DHT22;41082;52.822;6.666;2022-11-03T16:38:16;14.00;99.90
55211;DHT22;41082;52.822;6.666;2022-11-03T16:40:42;14.00;99.90
55211;DHT22;41082;52.822;6.666;2022-11-03T16:43:08;14.00;99.90